sensor_id;sensor_type;location;lat;lon;timestamp;temperature;humidity
9975;DHT22;5028;50.974;4.968;2023-08-31T00:00:09;11.70;99.90
9975;DHT22;5028;50.974;4.968;2023-08-31T00:02:39;11.70;99.90
9975;DHT22;5028;50.974;4.968;2023-08-31T00:05:09;11.70;99.90
9975;DHT22;5028;50.974;4.968;2023-08-31T00:07:39;11.70;99.90
9975;DHT22;5028;50.974;4.968;2023-08-31T00:10:08;11.70;99.90
9975;DHT22;5028;50.974;4.968;2023-08-31T00:12:39;11.70;99.90
9975;DHT22;5028;50.974;4.968;2023-08-31T00:15:08;11.60;99.90
9975;DHT22;5028;50.974;4.968;2023-08-31T00:17:37;11.70;99.90
9975;DHT22;5028;50.974;4.968;2023-08-31T00:20:08;11.60;99.90
9975;DHT22;5028;50.974;4.968;2023-08-31T00:22:41;11.60;99.90
9975;DHT22;5028;50.974;4.968;2023-08-31T00:25:09;11.60;99.90
9975;DHT22;5028;50.974;4.968;2023-08-31T00:27:39;11.60;99.90
9975;DHT22;5028;50.974;4.968;2023-08-31T00:30:11;11.50;99.90
9975;DHT22;5028;50.974;4.968;2023-08-31T00:32:41;11.60;99.90
9975;DHT22;5028;50.974;4.968;2023-08-31T00:35:11;11.50;99.90
9975;DHT22;5028;50.974;4.968;2023-08-31T00:37:41;11.50;99.90
9975;DHT22;5028;50.974;4.968;2023-08-31T00:40:11;11.50;99.90
9975;DHT22;5028;50.974;4.968;2023-08-31T00:42:41;11.50;99.90
9975;DHT22;5028;50.974;4.968;2023-08-31T00:45:10;11.50;99.90
9975;DHT22;5028;50.974;4.968;2023-08-31T00:47:39;11.40;99.90
9975;DHT22;5028;50.974;4.968;2023-08-31T00:50:09;11.50;99.90
9975;DHT22;5028;50.974;4.968;2023-08-31T00:52:38;11.50;99.90
9975;DHT22;5028;50.974;4.968;2023-08-31T00:55:09;11.50;99.90
9975;DHT22;5028;50.974;4.968;2023-08-31T00:57:39;11.50;99.90
9975;DHT22;5028;50.974;4.968;2023-08-31T01:00:08;11.50;99.90
9975;DHT22;5028;50.974;4.968;2023-08-31T01:02:43;11.50;99.90
9975;DHT22;5028;50.974;4.968;2023-08-31T01:05:27;11.40;99.90
9975;DHT22;5028;50.974;4.968;2023-08-31T01:08:10;11.40;99.90
9975;DHT22;5028;50.974;4.968;2023-08-31T01:10:49;11.50;99.90
9975;DHT22;5028;50.974;4.968;2023-08-31T01:13:24;11.40;99.90
9975;DHT22;5028;50.974;4.968;2023-08-31T01:15:58;11.40;99.90
9975;DHT22;5028;50.974;4.968;2023-08-31T01:18:29;11.40;99.90
9975;DHT22;5028;50.974;4.968;2023-08-31T01:21:06;11.40;99.90
9975;DHT22;5028;50.974;4.968;2023-08-31T01:23:55;11.40;99.90
9975;DHT22;5028;50.974;4.968;2023-08-31T01:26:25;11.40;99.90
9975;DHT22;5028;50.974;4.968;2023-08-31T01:28:55;11.40;99.90
9975;DHT22;5028;50.974;4.968;2023-08-31T01:31:24;11.40;99.90
9975;DHT22;5028;50.974;4.968;2023-08-31T01:33:53;11.40;99.90
9975;DHT22;5028;50.974;4.968;2023-08-31T01:36:29;11.40;99.90
9975;DHT22;5028;50.974;4.968;2023-08-31T01:39:03;11.40;99.90
9975;DHT22;5028;50.974;4.968;2023-08-31T01:41:35;11.40;99.90
9975;DHT22;5028;50.974;4.968;2023-08-31T01:44:06;11.40;99.90
9975;DHT22;5028;50.974;4.968;2023-08-31T01:46:39;11.40;99.90
9975;DHT22;5028;50.974;4.968;2023-08-31T01:49:10;11.40;99.90
9975;DHT22;5028;50.974;4.968;2023-08-31T01:51:39;11.40;99.90
9975;DHT22;5028;50.974;4.968;2023-08-31T01:54:10;11.40;99.90
9975;DHT22;5028;50.974;4.968;2023-08-31T01:56:39;11.40;99.90
9975;DHT22;5028;50.974;4.968;2023-08-31T01:59:07;11.30;99.90
9975;DHT22;5028;50.974;4.968;2023-08-31T02:01:36;11.40;99.90
9975;DHT22;5028;50.974;4.968;2023-08-31T02:04:05;11.30;99.90
9975;DHT22;5028;50.974;4.968;2023-08-31T02:06:34;11.30;99.90
9975;DHT22;5028;50.974;4.968;2023-08-31T02:09:03;11.30;99.90
9975;DHT22;5028;50.974;4.968;2023-08-31T02:11:34;11.30;99.90
9975;DHT22;5028;50.974;4.968;2023-08-31T02:14:05;11.30;99.90
9975;DHT22;5028;50.974;4.968;2023-08-31T02:16:34;11.30;99.90
9975;DHT22;5028;50.974;4.968;2023-08-31T02:19:03;11.30;99.90
9975;DHT22;5028;50.974;4.968;2023-08-31T02:21:32;11.30;99.90
9975;DHT22;5028;50.974;4.968;2023-08-31T02:24:01;11.30;99.90
9975;DHT22;5028;50.974;4.968;2023-08-31T02:26:30;11.30;99.90
9975;DHT22;5028;50.974;4.968;2023-08-31T02:29:01;11.30;99.90
9975;DHT22;5028;50.974;4.968;2023-08-31T02:31:30;11.30;99.90
9975;DHT22;5028;50.974;4.968;2023-08-31T02:33:59;11.30;99.90
9975;DHT22;5028;50.974;4.968;2023-08-31T02:36:27;11.30;99.90
9975;DHT22;5028;50.974;4.968;2023-08-31T02:38:56;11.30;99.90
9975;DHT22;5028;50.974;4.968;2023-08-31T02:41:25;11.30;99.90
9975;DHT22;5028;50.974;4.968;2023-08-31T02:43:55;11.30;99.90
9975;DHT22;5028;50.974;4.968;2023-08-31T02:46:25;11.30;99.90
9975;DHT22;5028;50.974;4.968;2023-08-31T02:48:54;11.30;99.90
9975;DHT22;5028;50.974;4.968;2023-08-31T02:51:23;11.30;99.90
9975;DHT22;5028;50.974;4.968;2023-08-31T02:53:52;11.30;99.90
9975;DHT22;5028;50.974;4.968;2023-08-31T02:56:21;11.20;99.90
9975;DHT22;5028;50.974;4.968;2023-08-31T02:58:51;11.30;99.90
9975;DHT22;5028;50.974;4.968;2023-08-31T03:01:20;11.30;99.90
9975;DHT22;5028;50.974;4.968;2023-08-31T03:03:50;11.30;99.90
9975;DHT22;5028;50.974;4.968;2023-08-31T03:06:19;11.30;99.90
9975;DHT22;5028;50.974;4.968;2023-08-31T03:08:48;11.30;99.90
9975;DHT22;5028;50.974;4.968;2023-08-31T03:11:17;11.30;99.90
9975;DHT22;5028;50.974;4.968;2023-08-31T03:13:46;11.30;99.90
9975;DHT22;5028;50.974;4.968;2023-08-31T03:16:15;11.30;99.90
9975;DHT22;5028;50.974;4.968;2023-08-31T03:18:44;11.30;99.90
9975;DHT22;5028;50.974;4.968;2023-08-31T03:21:14;11.30;99.90
9975;DHT22;5028;50.974;4.968;2023-08-31T03:23:43;11.40;99.90
9975;DHT22;5028;50.974;4.968;2023-08-31T03:26:13;11.40;99.90
9975;DHT22;5028;50.974;4.968;2023-08-31T03:28:41;11.40;99.90
9975;DHT22;5028;50.974;4.968;2023-08-31T03:31:10;11.40;99.90
9975;DHT22;5028;50.974;4.968;2023-08-31T03:33:40;11.40;99.90
9975;DHT22;5028;50.974;4.968;2023-08-31T03:36:09;11.50;99.90
9975;DHT22;5028;50.974;4.968;2023-08-31T03:38:39;11.40;99.90
9975;DHT22;5028;50.974;4.968;2023-08-31T03:41:08;11.40;99.90
9975;DHT22;5028;50.974;4.968;2023-08-31T03:43:37;11.40;99.90
9975;DHT22;5028;50.974;4.968;2023-08-31T03:46:05;11.40;99.90
9975;DHT22;5028;50.974;4.968;2023-08-31T03:48:34;11.40;99.90
9975;DHT22;5028;50.974;4.968;2023-08-31T03:51:04;11.40;99.90
9975;DHT22;5028;50.974;4.968;2023-08-31T03:53:33;11.50;99.90
9975;DHT22;5028;50.974;4.968;2023-08-31T03:56:03;11.50;99.90
9975;DHT22;5028;50.974;4.968;2023-08-31T03:58:32;11.50;99.90
9975;DHT22;5028;50.974;4.968;2023-08-31T04:01:01;11.50;99.90
9975;DHT22;5028;50.974;4.968;2023-08-31T04:03:30;11.50;99.90
9975;DHT22;5028;50.974;4.968;2023-08-31T04:05:59;11.50;99.90
9975;DHT22;5028;50.974;4.968;2023-08-31T04:08:28;11.50;99.90
9975;DHT22;5028;50.974;4.968;2023-08-31T04:10:57;11.50;99.90
9975;DHT22;5028;50.974;4.968;2023-08-31T04:13:28;11.50;99.90
9975;DHT22;5028;50.974;4.968;2023-08-31T04:15:57;11.50;99.90
9975;DHT22;5028;50.974;4.968;2023-08-31T04:18:25;11.50;99.90
9975;DHT22;5028;50.974;4.968;2023-08-31T04:20:54;11.50;99.90
9975;DHT22;5028;50.974;4.968;2023-08-31T04:23:26;11.50;99.90
9975;DHT22;5028;50.974;4.968;2023-08-31T04:25:56;11.50;99.90
9975;DHT22;5028;50.974;4.968;2023-08-31T04:28:25;11.50;99.90
9975;DHT22;5028;50.974;4.968;2023-08-31T04:30:56;11.50;99.90
9975;DHT22;5028;50.974;4.968;2023-08-31T04:33:25;11.50;99.90
9975;DHT22;5028;50.974;4.968;2023-08-31T04:35:53;11.50;99.90
9975;DHT22;5028;50.974;4.968;2023-08-31T04:38:22;11.50;99.90
9975;DHT22;5028;50.974;4.968;2023-08-31T04:40:51;11.50;99.90
9975;DHT22;5028;50.974;4.968;2023-08-31T04:43:20;11.50;99.90
9975;DHT22;5028;50.974;4.968;2023-08-31T04:45:51;11.40;99.90
9975;DHT22;5028;50.974;4.968;2023-08-31T04:48:21;11.50;99.90
9975;DHT22;5028;50.974;4.968;2023-08-31T04:50:55;11.50;99.90
9975;DHT22;5028;50.974;4.968;2023-08-31T04:53:25;11.50;99.90
9975;DHT22;5028;50.974;4.968;2023-08-31T04:55:53;11.40;99.90
9975;DHT22;5028;50.974;4.968;2023-08-31T04:58:22;11.50;99.90
9975;DHT22;5028;50.974;4.968;2023-08-31T05:00:52;11.50;99.90
9975;DHT22;5028;50.974;4.968;2023-08-31T05:03:23;11.50;99.90
9975;DHT22;5028;50.974;4.968;2023-08-31T05:05:53;11.50;99.90
9975;DHT22;5028;50.974;4.968;2023-08-31T05:08:22;11.50;99.90
9975;DHT22;5028;50.974;4.968;2023-08-31T05:10:51;11.50;99.90
9975;DHT22;5028;50.974;4.968;2023-08-31T05:13:20;11.50;99.90
9975;DHT22;5028;50.974;4.968;2023-08-31T05:15:49;11.50;99.90
9975;DHT22;5028;50.974;4.968;2023-08-31T05:18:18;11.60;99.90
9975;DHT22;5028;50.974;4.968;2023-08-31T05:20:48;11.60;99.90
9975;DHT22;5028;50.974;4.968;2023-08-31T05:23:17;11.60;99.90
9975;DHT22;5028;50.974;4.968;2023-08-31T05:25:46;11.60;99.90
9975;DHT22;5028;50.974;4.968;2023-08-31T05:28:15;11.60;99.90
9975;DHT22;5028;50.974;4.968;2023-08-31T05:30:51;11.60;99.90
9975;DHT22;5028;50.974;4.968;2023-08-31T05:33:20;11.70;99.90
9975;DHT22;5028;50.974;4.968;2023-08-31T05:35:51;11.70;99.90
9975;DHT22;5028;50.974;4.968;2023-08-31T05:38:19;11.70;99.90
9975;DHT22;5028;50.974;4.968;2023-08-31T05:40:48;11.70;99.90
9975;DHT22;5028;50.974;4.968;2023-08-31T05:43:17;11.80;99.90
9975;DHT22;5028;50.974;4.968;2023-08-31T05:45:46;11.80;99.90
9975;DHT22;5028;50.974;4.968;2023-08-31T05:48:15;11.80;99.90
9975;DHT22;5028;50.974;4.968;2023-08-31T05:50:43;11.90;99.90
9975;DHT22;5028;50.974;4.968;2023-08-31T05:53:14;11.90;99.90
9975;DHT22;5028;50.974;4.968;2023-08-31T05:55:43;11.90;99.90
9975;DHT22;5028;50.974;4.968;2023-08-31T05:58:12;12.00;99.90
9975;DHT22;5028;50.974;4.968;2023-08-31T06:00:41;12.00;99.90
9975;DHT22;5028;50.974;4.968;2023-08-31T06:03:10;12.10;99.90
9975;DHT22;5028;50.974;4.968;2023-08-31T06:05:40;12.10;99.90
9975;DHT22;5028;50.974;4.968;2023-08-31T06:08:09;12.20;99.90
9975;DHT22;5028;50.974;4.968;2023-08-31T06:10:39;12.20;99.90
9975;DHT22;5028;50.974;4.968;2023-08-31T06:13:08;12.30;99.90
9975;DHT22;5028;50.974;4.968;2023-08-31T06:15:37;12.30;99.90
9975;DHT22;5028;50.974;4.968;2023-08-31T06:18:06;12.30;99.90
9975;DHT22;5028;50.974;4.968;2023-08-31T06:20:36;12.40;99.90
9975;DHT22;5028;50.974;4.968;2023-08-31T06:23:04;12.40;99.90
9975;DHT22;5028;50.974;4.968;2023-08-31T06:25:33;12.50;99.90
9975;DHT22;5028;50.974;4.968;2023-08-31T06:28:05;12.50;99.90
9975;DHT22;5028;50.974;4.968;2023-08-31T06:30:36;12.60;99.90
9975;DHT22;5028;50.974;4.968;2023-08-31T06:33:05;12.60;99.90
9975;DHT22;5028;50.974;4.968;2023-08-31T06:35:34;12.70;99.90
9975;DHT22;5028;50.974;4.968;2023-08-31T06:38:04;12.70;99.90
9975;DHT22;5028;50.974;4.968;2023-08-31T06:40:33;12.80;99.90
9975;DHT22;5028;50.974;4.968;2023-08-31T06:43:04;12.80;99.90
9975;DHT22;5028;50.974;4.968;2023-08-31T06:45:33;12.90;99.90
9975;DHT22;5028;50.974;4.968;2023-08-31T06:48:03;12.90;99.90
9975;DHT22;5028;50.974;4.968;2023-08-31T06:50:33;13.00;99.90
9975;DHT22;5028;50.974;4.968;2023-08-31T06:53:03;13.00;99.90
9975;DHT22;5028;50.974;4.968;2023-08-31T06:55:32;13.10;99.90
9975;DHT22;5028;50.974;4.968;2023-08-31T06:58:01;13.10;99.90
9975;DHT22;5028;50.974;4.968;2023-08-31T07:00:33;13.10;99.90
9975;DHT22;5028;50.974;4.968;2023-08-31T07:03:01;13.20;99.90
9975;DHT22;5028;50.974;4.968;2023-08-31T07:05:34;13.30;99.90
9975;DHT22;5028;50.974;4.968;2023-08-31T07:08:04;13.30;99.90
9975;DHT22;5028;50.974;4.968;2023-08-31T07:10:32;13.30;99.90
9975;DHT22;5028;50.974;4.968;2023-08-31T07:13:04;13.40;99.90
9975;DHT22;5028;50.974;4.968;2023-08-31T07:15:34;13.50;99.90
9975;DHT22;5028;50.974;4.968;2023-08-31T07:18:03;13.50;99.90
9975;DHT22;5028;50.974;4.968;2023-08-31T07:20:33;13.60;99.90
9975;DHT22;5028;50.974;4.968;2023-08-31T07:23:04;13.60;99.90
9975;DHT22;5028;50.974;4.968;2023-08-31T07:25:32;13.70;99.90
9975;DHT22;5028;50.974;4.968;2023-08-31T07:28:02;13.80;99.90
9975;DHT22;5028;50.974;4.968;2023-08-31T07:30:31;13.80;99.90
9975;DHT22;5028;50.974;4.968;2023-08-31T07:33:02;13.90;99.90
9975;DHT22;5028;50.974;4.968;2023-08-31T07:35:50;14.00;99.90
9975;DHT22;5028;50.974;4.968;2023-08-31T07:38:19;14.00;99.90
9975;DHT22;5028;50.974;4.968;2023-08-31T07:40:49;14.10;99.90
9975;DHT22;5028;50.974;4.968;2023-08-31T07:43:17;14.20;99.90
9975;DHT22;5028;50.974;4.968;2023-08-31T07:45:47;14.20;99.90
9975;DHT22;5028;50.974;4.968;2023-08-31T07:48:17;14.30;99.90
9975;DHT22;5028;50.974;4.968;2023-08-31T07:50:46;14.40;99.90
9975;DHT22;5028;50.974;4.968;2023-08-31T07:53:16;14.50;99.90
9975;DHT22;5028;50.974;4.968;2023-08-31T07:55:51;14.60;99.90
9975;DHT22;5028;50.974;4.968;2023-08-31T07:58:21;14.70;99.90
9975;DHT22;5028;50.974;4.968;2023-08-31T08:00:53;14.80;99.90
9975;DHT22;5028;50.974;4.968;2023-08-31T08:03:24;14.90;99.90
9975;DHT22;5028;50.974;4.968;2023-08-31T08:05:56;14.90;99.90
9975;DHT22;5028;50.974;4.968;2023-08-31T08:08:27;15.00;99.90
9975;DHT22;5028;50.974;4.968;2023-08-31T08:10:56;15.10;99.90
9975;DHT22;5028;50.974;4.968;2023-08-31T08:13:26;15.10;99.90
9975;DHT22;5028;50.974;4.968;2023-08-31T08:15:55;15.20;99.90
9975;DHT22;5028;50.974;4.968;2023-08-31T08:18:27;15.30;99.90
9975;DHT22;5028;50.974;4.968;2023-08-31T08:20:57;15.30;99.90
9975;DHT22;5028;50.974;4.968;2023-08-31T08:23:26;15.40;99.90
9975;DHT22;5028;50.974;4.968;2023-08-31T08:25:56;15.40;99.90
9975;DHT22;5028;50.974;4.968;2023-08-31T08:28:26;15.50;99.90
9975;DHT22;5028;50.974;4.968;2023-08-31T08:30:56;15.60;99.90
9975;DHT22;5028;50.974;4.968;2023-08-31T08:33:29;15.60;99.90
9975;DHT22;5028;50.974;4.968;2023-08-31T08:35:59;15.70;99.90
9975;DHT22;5028;50.974;4.968;2023-08-31T08:38:30;15.80;99.90
9975;DHT22;5028;50.974;4.968;2023-08-31T08:41:06;15.80;99.90
9975;DHT22;5028;50.974;4.968;2023-08-31T08:43:43;15.90;99.90
9975;DHT22;5028;50.974;4.968;2023-08-31T08:46:12;16.00;99.90
9975;DHT22;5028;50.974;4.968;2023-08-31T08:48:46;16.00;99.90
9975;DHT22;5028;50.974;4.968;2023-08-31T08:51:16;16.10;99.90
9975;DHT22;5028;50.974;4.968;2023-08-31T08:53:59;16.20;99.90
9975;DHT22;5028;50.974;4.968;2023-08-31T08:56:31;16.30;99.90
9975;DHT22;5028;50.974;4.968;2023-08-31T08:59:01;16.40;99.90
9975;DHT22;5028;50.974;4.968;2023-08-31T09:01:31;16.60;99.90
9975;DHT22;5028;50.974;4.968;2023-08-31T09:04:03;16.70;99.90
9975;DHT22;5028;50.974;4.968;2023-08-31T09:06:32;16.80;99.90
9975;DHT22;5028;50.974;4.968;2023-08-31T09:09:07;17.10;99.90
9975;DHT22;5028;50.974;4.968;2023-08-31T09:11:36;17.40;99.90
9975;DHT22;5028;50.974;4.968;2023-08-31T09:14:14;17.50;99.90
9975;DHT22;5028;50.974;4.968;2023-08-31T09:16:44;17.80;99.90
9975;DHT22;5028;50.974;4.968;2023-08-31T09:19:20;18.00;99.90
9975;DHT22;5028;50.974;4.968;2023-08-31T09:21:49;18.30;99.90
9975;DHT22;5028;50.974;4.968;2023-08-31T09:24:19;18.50;99.90
9975;DHT22;5028;50.974;4.968;2023-08-31T09:26:52;18.60;99.90
9975;DHT22;5028;50.974;4.968;2023-08-31T09:29:22;18.70;99.90
9975;DHT22;5028;50.974;4.968;2023-08-31T09:31:51;18.90;99.90
9975;DHT22;5028;50.974;4.968;2023-08-31T09:34:21;19.00;99.90
9975;DHT22;5028;50.974;4.968;2023-08-31T09:37:05;19.30;99.90
9975;DHT22;5028;50.974;4.968;2023-08-31T09:39:36;19.60;99.90
9975;DHT22;5028;50.974;4.968;2023-08-31T09:42:05;19.90;99.90
9975;DHT22;5028;50.974;4.968;2023-08-31T09:44:34;20.30;99.90
9975;DHT22;5028;50.974;4.968;2023-08-31T09:47:09;20.50;99.90
9975;DHT22;5028;50.974;4.968;2023-08-31T09:49:41;20.50;99.90
9975;DHT22;5028;50.974;4.968;2023-08-31T09:52:11;20.50;99.90
9975;DHT22;5028;50.974;4.968;2023-08-31T09:54:42;20.30;99.90
9975;DHT22;5028;50.974;4.968;2023-08-31T09:57:13;20.20;99.90
9975;DHT22;5028;50.974;4.968;2023-08-31T09:59:44;20.40;99.90
9975;DHT22;5028;50.974;4.968;2023-08-31T10:02:14;20.50;99.90
9975;DHT22;5028;50.974;4.968;2023-08-31T10:04:47;20.70;99.90
9975;DHT22;5028;50.974;4.968;2023-08-31T10:07:20;20.90;99.90
9975;DHT22;5028;50.974;4.968;2023-08-31T10:09:50;21.10;99.90
9975;DHT22;5028;50.974;4.968;2023-08-31T10:12:19;21.20;99.90
9975;DHT22;5028;50.974;4.968;2023-08-31T10:14:49;21.30;99.90
9975;DHT22;5028;50.974;4.968;2023-08-31T10:17:20;21.30;99.90
9975;DHT22;5028;50.974;4.968;2023-08-31T10:19:50;21.50;99.90
9975;DHT22;5028;50.974;4.968;2023-08-31T10:22:20;21.70;99.90
9975;DHT22;5028;50.974;4.968;2023-08-31T10:24:58;22.00;99.90
9975;DHT22;5028;50.974;4.968;2023-08-31T10:27:28;22.30;99.90
9975;DHT22;5028;50.974;4.968;2023-08-31T10:29:57;22.30;99.90
9975;DHT22;5028;50.974;4.968;2023-08-31T10:32:26;22.40;99.90
9975;DHT22;5028;50.974;4.968;2023-08-31T10:35:07;22.30;99.90
9975;DHT22;5028;50.974;4.968;2023-08-31T10:37:40;22.00;99.90
9975;DHT22;5028;50.974;4.968;2023-08-31T10:40:10;21.90;99.90
9975;DHT22;5028;50.974;4.968;2023-08-31T10:42:43;21.50;99.90
9975;DHT22;5028;50.974;4.968;2023-08-31T10:45:13;21.00;99.90
9975;DHT22;5028;50.974;4.968;2023-08-31T10:47:42;20.80;99.90
9975;DHT22;5028;50.974;4.968;2023-08-31T10:50:21;20.80;99.90
9975;DHT22;5028;50.974;4.968;2023-08-31T10:52:51;20.70;99.90
9975;DHT22;5028;50.974;4.968;2023-08-31T10:55:19;20.50;99.90
9975;DHT22;5028;50.974;4.968;2023-08-31T10:57:57;20.30;99.90
9975;DHT22;5028;50.974;4.968;2023-08-31T11:00:51;20.00;99.90
9975;DHT22;5028;50.974;4.968;2023-08-31T11:03:24;19.90;99.90
9975;DHT22;5028;50.974;4.968;2023-08-31T11:05:54;20.20;99.90
9975;DHT22;5028;50.974;4.968;2023-08-31T11:08:24;20.30;99.90
9975;DHT22;5028;50.974;4.968;2023-08-31T11:10:54;20.30;99.90
9975;DHT22;5028;50.974;4.968;2023-08-31T11:13:24;20.10;99.90
9975;DHT22;5028;50.974;4.968;2023-08-31T11:15:53;20.00;99.90
9975;DHT22;5028;50.974;4.968;2023-08-31T11:18:23;20.20;99.90
9975;DHT22;5028;50.974;4.968;2023-08-31T11:20:55;20.20;99.90
9975;DHT22;5028;50.974;4.968;2023-08-31T11:23:26;20.20;99.90
9975;DHT22;5028;50.974;4.968;2023-08-31T11:25:55;20.00;99.90
9975;DHT22;5028;50.974;4.968;2023-08-31T11:28:24;19.90;99.90
9975;DHT22;5028;50.974;4.968;2023-08-31T11:30:53;20.10;99.90
9975;DHT22;5028;50.974;4.968;2023-08-31T11:33:22;20.20;99.90
9975;DHT22;5028;50.974;4.968;2023-08-31T11:35:51;20.30;99.90
9975;DHT22;5028;50.974;4.968;2023-08-31T11:38:23;20.30;99.90
9975;DHT22;5028;50.974;4.968;2023-08-31T11:40:56;20.30;99.90
9975;DHT22;5028;50.974;4.968;2023-08-31T11:43:25;20.70;99.90
9975;DHT22;5028;50.974;4.968;2023-08-31T11:45:54;20.90;99.90
9975;DHT22;5028;50.974;4.968;2023-08-31T11:48:25;21.10;99.90
9975;DHT22;5028;50.974;4.968;2023-08-31T11:50:55;21.70;99.90
9975;DHT22;5028;50.974;4.968;2023-08-31T11:53:27;22.00;99.90
9975;DHT22;5028;50.974;4.968;2023-08-31T11:55:56;22.30;99.90
9975;DHT22;5028;50.974;4.968;2023-08-31T11:58:26;22.40;99.90
9975;DHT22;5028;50.974;4.968;2023-08-31T12:00:56;22.80;99.90
9975;DHT22;5028;50.974;4.968;2023-08-31T12:03:26;23.00;99.90
9975;DHT22;5028;50.974;4.968;2023-08-31T12:06:15;23.20;99.90
9975;DHT22;5028;50.974;4.968;2023-08-31T12:08:47;23.10;99.90
9975;DHT22;5028;50.974;4.968;2023-08-31T12:11:16;23.00;99.90
9975;DHT22;5028;50.974;4.968;2023-08-31T12:13:47;22.80;99.90
9975;DHT22;5028;50.974;4.968;2023-08-31T12:16:15;22.50;99.90
9975;DHT22;5028;50.974;4.968;2023-08-31T12:18:44;22.40;99.90
9975;DHT22;5028;50.974;4.968;2023-08-31T12:21:14;22.40;99.90
9975;DHT22;5028;50.974;4.968;2023-08-31T12:23:43;22.40;99.90
9975;DHT22;5028;50.974;4.968;2023-08-31T12:26:16;22.20;99.90
9975;DHT22;5028;50.974;4.968;2023-08-31T12:28:45;21.80;99.90
9975;DHT22;5028;50.974;4.968;2023-08-31T12:31:13;21.40;99.90
9975;DHT22;5028;50.974;4.968;2023-08-31T12:33:42;21.20;99.90
9975;DHT22;5028;50.974;4.968;2023-08-31T12:36:12;21.00;99.90
9975;DHT22;5028;50.974;4.968;2023-08-31T12:38:41;21.20;99.90
9975;DHT22;5028;50.974;4.968;2023-08-31T12:41:10;21.50;99.90
9975;DHT22;5028;50.974;4.968;2023-08-31T12:43:40;21.70;99.90
9975;DHT22;5028;50.974;4.968;2023-08-31T12:46:09;21.50;99.90
9975;DHT22;5028;50.974;4.968;2023-08-31T12:48:40;21.40;99.90
9975;DHT22;5028;50.974;4.968;2023-08-31T12:51:09;21.50;99.90
9975;DHT22;5028;50.974;4.968;2023-08-31T12:53:39;21.40;99.90
9975;DHT22;5028;50.974;4.968;2023-08-31T12:56:08;21.00;99.90
9975;DHT22;5028;50.974;4.968;2023-08-31T12:58:40;20.80;99.90
9975;DHT22;5028;50.974;4.968;2023-08-31T13:01:08;20.80;99.90
9975;DHT22;5028;50.974;4.968;2023-08-31T13:03:37;20.80;99.90
9975;DHT22;5028;50.974;4.968;2023-08-31T13:06:08;21.00;99.90
9975;DHT22;5028;50.974;4.968;2023-08-31T13:08:38;21.00;99.90
9975;DHT22;5028;50.974;4.968;2023-08-31T13:11:07;21.10;99.90
9975;DHT22;5028;50.974;4.968;2023-08-31T13:13:37;21.10;99.90
9975;DHT22;5028;50.974;4.968;2023-08-31T13:16:09;20.80;99.90
9975;DHT22;5028;50.974;4.968;2023-08-31T13:18:38;20.60;99.90
9975;DHT22;5028;50.974;4.968;2023-08-31T13:21:08;20.50;99.90
9975;DHT22;5028;50.974;4.968;2023-08-31T13:23:37;20.50;99.90
9975;DHT22;5028;50.974;4.968;2023-08-31T13:26:06;20.50;99.90
9975;DHT22;5028;50.974;4.968;2023-08-31T13:28:35;20.70;99.90
9975;DHT22;5028;50.974;4.968;2023-08-31T13:31:11;20.80;99.90
9975;DHT22;5028;50.974;4.968;2023-08-31T13:33:40;20.60;99.90
9975;DHT22;5028;50.974;4.968;2023-08-31T13:36:11;20.60;99.90
9975;DHT22;5028;50.974;4.968;2023-08-31T13:38:39;20.60;99.90
9975;DHT22;5028;50.974;4.968;2023-08-31T13:41:19;20.30;99.90
9975;DHT22;5028;50.974;4.968;2023-08-31T13:43:48;20.20;99.90
9975;DHT22;5028;50.974;4.968;2023-08-31T13:46:18;20.10;99.90
9975;DHT22;5028;50.974;4.968;2023-08-31T13:48:47;20.10;99.90
9975;DHT22;5028;50.974;4.968;2023-08-31T13:51:16;20.20;99.90
9975;DHT22;5028;50.974;4.968;2023-08-31T13:53:45;20.30;99.90
9975;DHT22;5028;50.974;4.968;2023-08-31T13:56:15;20.30;99.90
9975;DHT22;5028;50.974;4.968;2023-08-31T13:58:44;20.30;99.90
9975;DHT22;5028;50.974;4.968;2023-08-31T14:01:13;20.60;99.90
9975;DHT22;5028;50.974;4.968;2023-08-31T14:03:44;20.70;99.90
9975;DHT22;5028;50.974;4.968;2023-08-31T14:06:13;20.70;99.90
9975;DHT22;5028;50.974;4.968;2023-08-31T14:08:47;20.60;99.90
9975;DHT22;5028;50.974;4.968;2023-08-31T14:11:16;20.50;99.90
9975;DHT22;5028;50.974;4.968;2023-08-31T14:13:45;20.60;99.90
9975;DHT22;5028;50.974;4.968;2023-08-31T14:16:14;20.60;99.90
9975;DHT22;5028;50.974;4.968;2023-08-31T14:18:45;20.70;99.90
9975;DHT22;5028;50.974;4.968;2023-08-31T14:21:15;20.70;99.90
9975;DHT22;5028;50.974;4.968;2023-08-31T14:23:45;20.60;99.90
9975;DHT22;5028;50.974;4.968;2023-08-31T14:26:14;20.60;99.90
9975;DHT22;5028;50.974;4.968;2023-08-31T14:28:42;20.60;99.90
9975;DHT22;5028;50.974;4.968;2023-08-31T14:31:15;20.60;99.90
9975;DHT22;5028;50.974;4.968;2023-08-31T14:33:47;20.60;99.90
9975;DHT22;5028;50.974;4.968;2023-08-31T14:36:16;20.60;99.90
9975;DHT22;5028;50.974;4.968;2023-08-31T14:38:45;20.60;99.90
9975;DHT22;5028;50.974;4.968;2023-08-31T14:41:15;20.60;99.90
9975;DHT22;5028;50.974;4.968;2023-08-31T14:43:44;20.60;99.90
9975;DHT22;5028;50.974;4.968;2023-08-31T14:46:13;20.60;99.90
9975;DHT22;5028;50.974;4.968;2023-08-31T14:48:42;20.60;99.90
9975;DHT22;5028;50.974;4.968;2023-08-31T14:51:12;20.60;99.90
9975;DHT22;5028;50.974;4.968;2023-08-31T14:53:42;20.70;99.90
9975;DHT22;5028;50.974;4.968;2023-08-31T14:56:14;20.60;99.90
9975;DHT22;5028;50.974;4.968;2023-08-31T14:58:43;20.60;99.90
9975;DHT22;5028;50.974;4.968;2023-08-31T15:01:11;20.60;99.90
9975;DHT22;5028;50.974;4.968;2023-08-31T15:03:42;20.50;99.90
9975;DHT22;5028;50.974;4.968;2023-08-31T15:06:13;20.40;99.90
9975;DHT22;5028;50.974;4.968;2023-08-31T15:08:42;20.20;99.90
9975;DHT22;5028;50.974;4.968;2023-08-31T15:11:11;20.10;99.90
9975;DHT22;5028;50.974;4.968;2023-08-31T15:13:42;20.20;99.90
9975;DHT22;5028;50.974;4.968;2023-08-31T15:16:11;20.20;99.90
9975;DHT22;5028;50.974;4.968;2023-08-31T15:18:40;20.20;99.90
9975;DHT22;5028;50.974;4.968;2023-08-31T15:21:09;20.20;99.90
9975;DHT22;5028;50.974;4.968;2023-08-31T15:23:39;20.10;99.90
9975;DHT22;5028;50.974;4.968;2023-08-31T15:26:08;20.00;99.90
9975;DHT22;5028;50.974;4.968;2023-08-31T15:28:37;19.90;99.90
9975;DHT22;5028;50.974;4.968;2023-08-31T15:31:06;19.80;99.90
9975;DHT22;5028;50.974;4.968;2023-08-31T15:33:34;19.90;99.90
9975;DHT22;5028;50.974;4.968;2023-08-31T15:36:04;19.80;99.90
9975;DHT22;5028;50.974;4.968;2023-08-31T15:38:34;19.80;99.90
9975;DHT22;5028;50.974;4.968;2023-08-31T15:41:06;19.80;99.90
9975;DHT22;5028;50.974;4.968;2023-08-31T15:43:36;19.70;99.90
9975;DHT22;5028;50.974;4.968;2023-08-31T15:46:05;19.70;99.90
9975;DHT22;5028;50.974;4.968;2023-08-31T15:48:35;19.50;99.90
9975;DHT22;5028;50.974;4.968;2023-08-31T15:51:04;19.40;99.90
9975;DHT22;5028;50.974;4.968;2023-08-31T15:53:33;19.40;99.90
9975;DHT22;5028;50.974;4.968;2023-08-31T15:56:04;19.40;99.90
9975;DHT22;5028;50.974;4.968;2023-08-31T15:58:33;19.40;99.90
9975;DHT22;5028;50.974;4.968;2023-08-31T16:01:02;19.40;99.90
9975;DHT22;5028;50.974;4.968;2023-08-31T16:03:32;19.50;99.90
9975;DHT22;5028;50.974;4.968;2023-08-31T16:06:03;19.40;99.90
9975;DHT22;5028;50.974;4.968;2023-08-31T16:08:35;19.30;99.90
9975;DHT22;5028;50.974;4.968;2023-08-31T16:11:05;19.20;99.90
9975;DHT22;5028;50.974;4.968;2023-08-31T16:13:37;19.30;99.90
9975;DHT22;5028;50.974;4.968;2023-08-31T16:16:07;19.30;99.90
9975;DHT22;5028;50.974;4.968;2023-08-31T16:18:36;19.30;99.90
9975;DHT22;5028;50.974;4.968;2023-08-31T16:21:05;19.20;99.90